sensor_id;sensor_type;location;lat;lon;timestamp;pressure;altitude;pressure_sealevel;temperature;humidity
25638;BME280;13496;51.040;13.680;2022-08-04T00:04:03;99669.75;;;29.74;38.74
25638;BME280;13496;51.040;13.680;2022-08-04T00:09:13;99661.75;;;29.74;38.62
25638;BME280;13496;51.040;13.680;2022-08-04T00:14:18;99670.56;;;29.75;38.70
25638;BME280;13496;51.040;13.680;2022-08-04T00:19:31;99671.34;;;29.70;38.28
25638;BME280;13496;51.040;13.680;2022-08-04T00:24:34;99671.34;;;29.70;38.37
25638;BME280;13496;51.040;13.680;2022-08-04T00:29:38;99676.69;;;29.65;38.12
25638;BME280;13496;51.040;13.680;2022-08-04T00:34:40;99670.25;;;29.66;38.85
25638;BME280;13496;51.040;13.680;2022-08-04T00:39:42;99674.53;;;29.62;38.06
25638;BME280;13496;51.040;13.680;2022-08-04T00:44:56;99670.53;;;29.59;38.58
25638;BME280;13496;51.040;13.680;2022-08-04T00:50:14;99673.72;;;29.61;38.32
25638;BME280;13496;51.040;13.680;2022-08-04T00:55:30;99667.59;;;29.61;37.84
25638;BME280;13496;51.040;13.680;2022-08-04T01:00:46;99673.69;;;29.56;38.09
25638;BME280;13496;51.040;13.680;2022-08-04T01:06:11;99679.28;;;29.55;38.07
25638;BME280;13496;51.040;13.680;2022-08-04T01:11:41;99679.00;;;29.51;37.78
25638;BME280;13496;51.040;13.680;2022-08-04T01:16:56;99675.53;;;29.51;38.24
25638;BME280;13496;51.040;13.680;2022-08-04T01:27:11;99673.38;;;29.42;38.68
25638;BME280;13496;51.040;13.680;2022-08-04T01:32:19;99677.38;;;29.40;38.81
25638;BME280;13496;51.040;13.680;2022-08-04T01:37:48;99671.50;;;29.38;38.96
25638;BME280;13496;51.040;13.680;2022-08-04T01:42:57;99677.09;;;29.36;38.41
25638;BME280;13496;51.040;13.680;2022-08-04T01:48:01;99669.63;;;29.33;38.42
25638;BME280;13496;51.040;13.680;2022-08-04T01:53:05;99670.66;;;29.32;38.32
25638;BME280;13496;51.040;13.680;2022-08-04T01:58:07;99667.97;;;29.32;38.50
25638;BME280;13496;51.040;13.680;2022-08-04T02:03:09;99671.16;;;29.29;38.44
25638;BME280;13496;51.040;13.680;2022-08-04T02:08:21;99672.25;;;29.28;38.93
25638;BME280;13496;51.040;13.680;2022-08-04T02:19:20;99662.34;;;29.24;38.84
25638;BME280;13496;51.040;13.680;2022-08-04T02:24:26;99664.47;;;29.22;38.67
25638;BME280;13496;51.040;13.680;2022-08-04T02:29:41;99651.38;;;29.20;38.47
25638;BME280;13496;51.040;13.680;2022-08-04T02:35:05;99657.22;;;29.17;38.09
25638;BME280;13496;51.040;13.680;2022-08-04T02:40:08;99652.16;;;29.15;38.14
25638;BME280;13496;51.040;13.680;2022-08-04T02:45:12;99647.06;;;29.14;38.18
25638;BME280;13496;51.040;13.680;2022-08-04T02:50:17;99640.91;;;29.13;38.34
25638;BME280;13496;51.040;13.680;2022-08-04T02:55:19;99643.88;;;29.12;37.67
25638;BME280;13496;51.040;13.680;2022-08-04T03:00:21;99639.84;;;29.09;37.79
25638;BME280;13496;51.040;13.680;2022-08-04T03:33:36;99649.44;;;29.00;38.66
25638;BME280;13496;51.040;13.680;2022-08-04T04:00:30;99661.09;;;28.94;37.95
25638;BME280;13496;51.040;13.680;2022-08-04T04:06:04;99660.53;;;28.92;38.20
25638;BME280;13496;51.040;13.680;2022-08-04T04:16:48;99658.94;;;28.86;37.19
25638;BME280;13496;51.040;13.680;2022-08-04T04:22:43;99659.44;;;28.83;37.41
25638;BME280;13496;51.040;13.680;2022-08-04T04:44:14;99682.59;;;28.72;36.77
25638;BME280;13496;51.040;13.680;2022-08-04T04:49:30;99681.00;;;28.71;36.96
25638;BME280;13496;51.040;13.680;2022-08-04T04:54:40;99679.38;;;28.70;36.72
25638;BME280;13496;51.040;13.680;2022-08-04T04:59:55;99684.22;;;28.73;37.05
25638;BME280;13496;51.040;13.680;2022-08-04T05:10:38;99676.19;;;28.68;37.25
25638;BME280;13496;51.040;13.680;2022-08-04T05:15:52;99677.78;;;28.69;36.76
25638;BME280;13496;51.040;13.680;2022-08-04T05:20:58;99678.06;;;28.73;36.71
25638;BME280;13496;51.040;13.680;2022-08-04T05:26:12;99677.25;;;28.72;37.17
25638;BME280;13496;51.040;13.680;2022-08-04T05:31:19;99671.13;;;28.72;37.13
25638;BME280;13496;51.040;13.680;2022-08-04T05:36:36;99668.19;;;28.73;36.83
25638;BME280;13496;51.040;13.680;2022-08-04T05:41:39;99667.66;;;28.71;37.46
25638;BME280;13496;51.040;13.680;2022-08-04T05:46:44;99665.78;;;28.72;37.29
25638;BME280;13496;51.040;13.680;2022-08-04T05:51:47;99675.66;;;28.71;37.61
25638;BME280;13496;51.040;13.680;2022-08-04T05:56:50;99674.03;;;28.70;37.45
25638;BME280;13496;51.040;13.680;2022-08-04T06:01:55;99676.47;;;28.72;37.57
25638;BME280;13496;51.040;13.680;2022-08-04T06:06:58;99665.78;;;28.72;37.45
25638;BME280;13496;51.040;13.680;2022-08-04T06:12:02;99678.88;;;28.73;37.73
25638;BME280;13496;51.040;13.680;2022-08-04T06:17:06;99682.34;;;28.74;37.76
25638;BME280;13496;51.040;13.680;2022-08-04T06:22:09;99690.09;;;28.75;37.90
25638;BME280;13496;51.040;13.680;2022-08-04T06:27:13;99682.09;;;28.75;37.91
25638;BME280;13496;51.040;13.680;2022-08-04T06:32:16;99688.81;;;28.78;37.77
25638;BME280;13496;51.040;13.680;2022-08-04T06:37:27;99684.25;;;28.78;37.52
25638;BME280;13496;51.040;13.680;2022-08-04T06:42:30;99686.13;;;28.78;37.81
25638;BME280;13496;51.040;13.680;2022-08-04T06:47:32;99693.06;;;28.79;37.77
25638;BME280;13496;51.040;13.680;2022-08-04T06:52:36;99684.78;;;28.80;37.85
25638;BME280;13496;51.040;13.680;2022-08-04T06:57:39;99686.41;;;28.81;37.86
25638;BME280;13496;51.040;13.680;2022-08-04T07:02:44;99691.50;;;28.83;37.53
25638;BME280;13496;51.040;13.680;2022-08-04T07:07:46;99685.88;;;28.84;37.54
25638;BME280;13496;51.040;13.680;2022-08-04T07:12:48;99676.00;;;28.85;37.81
25638;BME280;13496;51.040;13.680;2022-08-04T07:17:50;99677.63;;;28.86;37.74
25638;BME280;13496;51.040;13.680;2022-08-04T07:22:52;99673.09;;;28.86;38.09
25638;BME280;13496;51.040;13.680;2022-08-04T07:27:54;99668.28;;;28.88;38.03
25638;BME280;13496;51.040;13.680;2022-08-04T07:32:56;99665.59;;;28.88;37.55
25638;BME280;13496;51.040;13.680;2022-08-04T07:37:58;99665.88;;;28.92;37.85
25638;BME280;13496;51.040;13.680;2022-08-04T07:43:00;99665.66;;;28.93;37.73
25638;BME280;13496;51.040;13.680;2022-08-04T07:48:03;99658.16;;;28.95;38.03
25638;BME280;13496;51.040;13.680;2022-08-04T07:53:05;99664.06;;;28.98;37.98
25638;BME280;13496;51.040;13.680;2022-08-04T07:58:07;99663.03;;;28.99;37.95
25638;BME280;13496;51.040;13.680;2022-08-04T08:03:09;99647.78;;;28.99;37.89
25638;BME280;13496;51.040;13.680;2022-08-04T08:08:12;99647.28;;;29.02;37.70
25638;BME280;13496;51.040;13.680;2022-08-04T08:13:15;99646.22;;;29.03;37.67
25638;BME280;13496;51.040;13.680;2022-08-04T08:18:17;99647.56;;;29.06;37.92
25638;BME280;13496;51.040;13.680;2022-08-04T08:23:19;99640.91;;;29.08;37.69
25638;BME280;13496;51.040;13.680;2022-08-04T08:28:20;99627.03;;;29.11;38.01
25638;BME280;13496;51.040;13.680;2022-08-04T08:33:23;99635.56;;;29.13;38.18
25638;BME280;13496;51.040;13.680;2022-08-04T08:38:39;99640.41;;;29.16;37.86
25638;BME280;13496;51.040;13.680;2022-08-04T08:49:44;99626.25;;;29.21;37.78
25638;BME280;13496;51.040;13.680;2022-08-04T08:54:56;99635.34;;;29.25;37.82
25638;BME280;13496;51.040;13.680;2022-08-04T09:00:25;99630.03;;;29.30;37.77
25638;BME280;13496;51.040;13.680;2022-08-04T09:05:45;99623.63;;;29.31;37.82
25638;BME280;13496;51.040;13.680;2022-08-04T09:11:08;99629.53;;;29.33;37.83
25638;BME280;13496;51.040;13.680;2022-08-04T09:16:20;99628.16;;;29.36;38.10
25638;BME280;13496;51.040;13.680;2022-08-04T09:21:32;99622.56;;;29.37;37.96
25638;BME280;13496;51.040;13.680;2022-08-04T09:26:48;99627.38;;;29.40;37.60
25638;BME280;13496;51.040;13.680;2022-08-04T09:48:07;99606.56;;;29.53;37.76
25638;BME280;13496;51.040;13.680;2022-08-04T10:04:02;99597.25;;;29.60;37.71
25638;BME280;13496;51.040;13.680;2022-08-04T10:09:33;99598.31;;;29.64;37.36
25638;BME280;13496;51.040;13.680;2022-08-04T10:14:51;99594.06;;;29.69;37.54
25638;BME280;13496;51.040;13.680;2022-08-04T10:20:29;99586.03;;;29.69;37.54
25638;BME280;13496;51.040;13.680;2022-08-04T10:26:10;99579.06;;;29.73;37.62
25638;BME280;13496;51.040;13.680;2022-08-04T10:31:21;99579.34;;;29.76;37.25
25638;BME280;13496;51.040;13.680;2022-08-04T10:36:27;99580.41;;;29.80;37.74
25638;BME280;13496;51.040;13.680;2022-08-04T10:41:43;99570.78;;;29.84;37.63
25638;BME280;13496;51.040;13.680;2022-08-04T10:47:00;99571.84;;;29.88;37.35
25638;BME280;13496;51.040;13.680;2022-08-04T10:52:10;99574.25;;;29.95;37.72
25638;BME280;13496;51.040;13.680;2022-08-04T10:57:22;99566.50;;;29.99;37.43
25638;BME280;13496;51.040;13.680;2022-08-04T11:07:46;99556.88;;;30.03;37.24
25638;BME280;13496;51.040;13.680;2022-08-04T11:12:59;99552.84;;;30.05;36.55
25638;BME280;13496;51.040;13.680;2022-08-04T11:18:08;99549.38;;;30.05;37.33
25638;BME280;13496;51.040;13.680;2022-08-04T11:23:13;99544.81;;;30.10;37.41
25638;BME280;13496;51.040;13.680;2022-08-04T11:28:32;99545.09;;;30.09;37.22
25638;BME280;13496;51.040;13.680;2022-08-04T11:34:03;99541.34;;;30.15;37.51
25638;BME280;13496;51.040;13.680;2022-08-04T11:39:13;99553.94;;;30.20;37.59
25638;BME280;13496;51.040;13.680;2022-08-04T11:44:27;99553.13;;;30.24;37.71
25638;BME280;13496;51.040;13.680;2022-08-04T11:49:40;99550.16;;;30.26;37.40
25638;BME280;13496;51.040;13.680;2022-08-04T11:54:44;99553.09;;;30.29;37.45
25638;BME280;13496;51.040;13.680;2022-08-04T11:59:48;99544.28;;;30.34;37.55
25638;BME280;13496;51.040;13.680;2022-08-04T12:04:56;99542.91;;;30.36;37.38
25638;BME280;13496;51.040;13.680;2022-08-04T12:10:19;99540.25;;;30.36;37.55
25638;BME280;13496;51.040;13.680;2022-08-04T12:15:33;99537.03;;;30.40;37.68
25638;BME280;13496;51.040;13.680;2022-08-04T12:20:48;99535.41;;;30.44;37.63
25638;BME280;13496;51.040;13.680;2022-08-04T12:25:53;99529.50;;;30.47;37.71
25638;BME280;13496;51.040;13.680;2022-08-04T12:31:06;99522.03;;;30.49;37.66
25638;BME280;13496;51.040;13.680;2022-08-04T12:36:26;99519.31;;;30.54;37.53
25638;BME280;13496;51.040;13.680;2022-08-04T12:41:35;99526.53;;;30.58;37.76
25638;BME280;13496;51.040;13.680;2022-08-04T12:46:44;99516.06;;;30.62;37.86
25638;BME280;13496;51.040;13.680;2022-08-04T12:51:47;99518.19;;;30.65;37.87
25638;BME280;13496;51.040;13.680;2022-08-04T12:56:49;99508.03;;;30.67;37.97
25638;BME280;13496;51.040;13.680;2022-08-04T13:01:52;99509.63;;;30.68;37.87
25638;BME280;13496;51.040;13.680;2022-08-04T13:07:08;99500.25;;;30.71;37.97
25638;BME280;13496;51.040;13.680;2022-08-04T13:17:13;99487.66;;;30.71;37.89
25638;BME280;13496;51.040;13.680;2022-08-04T13:22:28;99480.13;;;30.73;37.73
25638;BME280;13496;51.040;13.680;2022-08-04T13:27:31;99480.13;;;30.78;37.77
25638;BME280;13496;51.040;13.680;2022-08-04T13:32:33;99475.53;;;30.84;37.67
25638;BME280;13496;51.040;13.680;2022-08-04T13:37:38;99476.34;;;30.84;38.00
25638;BME280;13496;51.040;13.680;2022-08-04T13:42:45;99477.97;;;30.85;38.03
25638;BME280;13496;51.040;13.680;2022-08-04T13:47:49;99468.84;;;30.87;38.23
25638;BME280;13496;51.040;13.680;2022-08-04T13:52:54;99473.91;;;30.88;37.83
25638;BME280;13496;51.040;13.680;2022-08-04T13:58:01;99462.41;;;30.88;37.78
25638;BME280;13496;51.040;13.680;2022-08-04T14:03:06;99458.09;;;30.92;37.91
25638;BME280;13496;51.040;13.680;2022-08-04T14:08:14;99458.63;;;30.94;37.80
25638;BME280;13496;51.040;13.680;2022-08-04T14:13:31;99451.88;;;30.96;38.10
25638;BME280;13496;51.040;13.680;2022-08-04T14:18:33;99444.63;;;31.02;37.90
25638;BME280;13496;51.040;13.680;2022-08-04T14:23:51;99440.31;;;31.06;37.98
25638;BME280;13496;51.040;13.680;2022-08-04T14:28:55;99441.34;;;31.10;37.80
25638;BME280;13496;51.040;13.680;2022-08-04T14:34:07;99428.47;;;31.12;37.82
25638;BME280;13496;51.040;13.680;2022-08-04T14:39:09;99434.88;;;31.16;37.77
25638;BME280;13496;51.040;13.680;2022-08-04T14:44:14;99430.31;;;31.17;37.48
25638;BME280;13496;51.040;13.680;2022-08-04T14:49:16;99424.94;;;31.17;37.55
25638;BME280;13496;51.040;13.680;2022-08-04T14:54:28;99426.78;;;31.21;37.19
25638;BME280;13496;51.040;13.680;2022-08-04T14:59:44;99421.41;;;31.21;37.32
25638;BME280;13496;51.040;13.680;2022-08-04T15:04:46;99413.63;;;31.25;37.13
25638;BME280;13496;51.040;13.680;2022-08-04T15:09:48;99414.16;;;31.27;37.17
25638;BME280;13496;51.040;13.680;2022-08-04T15:14:50;99411.19;;;31.28;37.20
25638;BME280;13496;51.040;13.680;2022-08-04T15:19:53;99408.78;;;31.27;37.03
25638;BME280;13496;51.040;13.680;2022-08-04T15:24:55;99407.69;;;31.28;37.19
25638;BME280;13496;51.040;13.680;2022-08-04T15:30:00;99404.19;;;31.32;37.29
25638;BME280;13496;51.040;13.680;2022-08-04T15:35:11;99400.47;;;31.33;37.12
25638;BME280;13496;51.040;13.680;2022-08-04T15:40:45;99397.19;;;31.37;37.17
25638;BME280;13496;51.040;13.680;2022-08-04T15:45:49;99394.50;;;31.37;37.12
25638;BME280;13496;51.040;13.680;2022-08-04T15:55:56;99395.78;;;31.44;37.01
25638;BME280;13496;51.040;13.680;2022-08-04T16:22:03;99387.63;;;31.54;37.18
25638;BME280;13496;51.040;13.680;2022-08-04T16:27:09;99389.75;;;31.57;37.22
25638;BME280;13496;51.040;13.680;2022-08-04T16:32:22;99381.72;;;31.57;36.88
25638;BME280;13496;51.040;13.680;2022-08-04T16:37:37;99381.41;;;31.59;36.76
25638;BME280;13496;51.040;13.680;2022-08-04T16:42:43;99386.22;;;31.62;36.57
25638;BME280;13496;51.040;13.680;2022-08-04T16:52:52;99378.94;;;31.68;36.11
25638;BME280;13496;51.040;13.680;2022-08-04T16:57:56;99368.22;;;31.68;36.57
25638;BME280;13496;51.040;13.680;2022-08-04T17:03:03;99368.47;;;31.66;36.40
25638;BME280;13496;51.040;13.680;2022-08-04T17:08:07;99365.53;;;31.68;36.08
25638;BME280;13496;51.040;13.680;2022-08-04T17:13:29;99369.50;;;31.70;36.00
25638;BME280;13496;51.040;13.680;2022-08-04T17:18:37;99357.72;;;31.71;35.83
25638;BME280;13496;51.040;13.680;2022-08-04T17:28:41;99358.75;;;31.70;36.03
25638;BME280;13496;51.040;13.680;2022-08-04T17:33:48;99359.84;;;31.69;35.85
25638;BME280;13496;51.040;13.680;2022-08-04T17:38:56;99358.28;;;31.68;35.76
25638;BME280;13496;51.040;13.680;2022-08-04T17:44:01;99356.09;;;31.70;35.37
25638;BME280;13496;51.040;13.680;2022-08-04T17:54:15;99360.94;;;31.68;35.08
25638;BME280;13496;51.040;13.680;2022-08-04T18:15:05;99366.88;;;31.65;35.48
25638;BME280;13496;51.040;13.680;2022-08-04T18:20:10;99372.81;;;31.62;35.22
25638;BME280;13496;51.040;13.680;2022-08-04T18:25:16;99371.50;;;31.60;35.36
25638;BME280;13496;51.040;13.680;2022-08-04T18:30:20;99371.78;;;31.58;35.61
25638;BME280;13496;51.040;13.680;2022-08-04T18:35:22;99368.31;;;31.57;35.22
25638;BME280;13496;51.040;13.680;2022-08-04T18:40:23;99382.00;;;31.56;35.46
25638;BME280;13496;51.040;13.680;2022-08-04T18:45:25;99390.06;;;31.56;35.58
25638;BME280;13496;51.040;13.680;2022-08-04T18:50:27;99390.63;;;31.53;35.49
25638;BME280;13496;51.040;13.680;2022-08-04T18:55:29;99389.81;;;31.52;35.70
25638;BME280;13496;51.040;13.680;2022-08-04T19:00:32;99399.72;;;31.52;35.41
25638;BME280;13496;51.040;13.680;2022-08-04T19:05:33;99402.69;;;31.50;35.56
25638;BME280;13496;51.040;13.680;2022-08-04T19:10:35;99401.91;;;31.50;35.69
25638;BME280;13496;51.040;13.680;2022-08-04T19:15:37;99407.56;;;31.48;35.74
25638;BME280;13496;51.040;13.680;2022-08-04T19:20:38;99418.28;;;31.48;35.76
25638;BME280;13496;51.040;13.680;2022-08-04T19:25:41;99414.78;;;31.48;35.87
25638;BME280;13496;51.040;13.680;2022-08-04T19:30:43;99401.66;;;31.46;35.70
25638;BME280;13496;51.040;13.680;2022-08-04T19:35:45;99423.13;;;31.46;35.75
25638;BME280;13496;51.040;13.680;2022-08-04T19:40:47;99412.69;;;31.45;35.70
25638;BME280;13496;51.040;13.680;2022-08-04T19:45:49;99413.75;;;31.44;35.83
25638;BME280;13496;51.040;13.680;2022-08-04T19:50:51;99415.63;;;31.43;35.72
25638;BME280;13496;51.040;13.680;2022-08-04T19:55:52;99416.72;;;31.42;36.07
25638;BME280;13496;51.040;13.680;2022-08-04T20:00:54;99414.59;;;31.39;35.95
25638;BME280;13496;51.040;13.680;2022-08-04T20:05:56;99418.38;;;31.38;36.04
25638;BME280;13496;51.040;13.680;2022-08-04T20:10:58;99424.00;;;31.37;35.87
25638;BME280;13496;51.040;13.680;2022-08-04T20:16:00;99414.38;;;31.36;35.60
25638;BME280;13496;51.040;13.680;2022-08-04T20:21:02;99413.88;;;31.33;35.83
25638;BME280;13496;51.040;13.680;2022-08-04T20:26:04;99419.22;;;31.33;36.08
25638;BME280;13496;51.040;13.680;2022-08-04T20:31:05;99420.28;;;31.32;36.00
25638;BME280;13496;51.040;13.680;2022-08-04T20:36:07;99418.69;;;31.31;36.02
25638;BME280;13496;51.040;13.680;2022-08-04T20:41:09;99419.78;;;31.30;36.00
25638;BME280;13496;51.040;13.680;2022-08-04T20:46:10;99411.19;;;31.28;36.14
25638;BME280;13496;51.040;13.680;2022-08-04T20:51:14;99421.09;;;31.28;36.02
25638;BME280;13496;51.040;13.680;2022-08-04T20:56:20;99418.72;;;31.26;35.95
25638;BME280;13496;51.040;13.680;2022-08-04T21:01:22;99418.19;;;31.24;35.79
25638;BME280;13496;51.040;13.680;2022-08-04T21:06:23;99417.09;;;31.25;35.86
25638;BME280;13496;51.040;13.680;2022-08-04T21:11:25;99415.50;;;31.24;35.97
25638;BME280;13496;51.040;13.680;2022-08-04T21:16:27;99412.31;;;31.22;36.04
25638;BME280;13496;51.040;13.680;2022-08-04T21:21:28;99417.69;;;31.22;36.23
25638;BME280;13496;51.040;13.680;2022-08-04T21:26:30;99420.38;;;31.22;36.27
25638;BME280;13496;51.040;13.680;2022-08-04T21:31:32;99414.47;;;31.20;36.37
25638;BME280;13496;51.040;13.680;2022-08-04T21:36:34;99411.00;;;31.20;36.15
25638;BME280;13496;51.040;13.680;2022-08-04T21:41:35;99409.66;;;31.17;36.05
25638;BME280;13496;51.040;13.680;2022-08-04T21:46:37;99405.91;;;31.18;36.07
25638;BME280;13496;51.040;13.680;2022-08-04T21:51:39;99415.31;;;31.16;36.36
25638;BME280;13496;51.040;13.680;2022-08-04T21:56:41;99411.84;;;31.15;36.10
25638;BME280;13496;51.040;13.680;2022-08-04T22:01:43;99411.31;;;31.13;36.16
25638;BME280;13496;51.040;13.680;2022-08-04T22:06:44;99403.25;;;31.13;36.00
25638;BME280;13496;51.040;13.680;2022-08-04T22:11:46;99406.25;;;31.12;36.48
25638;BME280;13496;51.040;13.680;2022-08-04T22:16:48;99409.97;;;31.10;36.23
25638;BME280;13496;51.040;13.680;2022-08-04T22:21:51;99399.53;;;31.09;36.20
25638;BME280;13496;51.040;13.680;2022-08-04T22:26:53;99400.63;;;31.08;36.47
25638;BME280;13496;51.040;13.680;2022-08-04T22:31:54;99394.47;;;31.07;36.07
25638;BME280;13496;51.040;13.680;2022-08-04T22:36:56;99396.34;;;31.07;36.03
25638;BME280;13496;51.040;13.680;2022-08-04T22:41:58;99386.69;;;31.06;36.52
25638;BME280;13496;51.040;13.680;2022-08-04T22:47:00;99395.28;;;31.08;36.23
25638;BME280;13496;51.040;13.680;2022-08-04T22:52:01;99395.81;;;31.05;36.23
25638;BME280;13496;51.040;13.680;2022-08-04T22:57:03;99388.34;;;31.02;36.12
25638;BME280;13496;51.040;13.680;2022-08-04T23:02:05;99389.44;;;31.01;36.48
25638;BME280;13496;51.040;13.680;2022-08-04T23:07:06;99394.00;;;31.00;36.36
25638;BME280;13496;51.040;13.680;2022-08-04T23:12:09;99392.63;;;31.03;36.18
25638;BME280;13496;51.040;13.680;2022-08-04T23:17:11;99392.63;;;31.03;36.70
25638;BME280;13496;51.040;13.680;2022-08-04T23:22:13;99393.41;;;31.03;36.25
25638;BME280;13496;51.040;13.680;2022-08-04T23:27:15;99394.00;;;31.00;36.18
25638;BME280;13496;51.040;13.680;2022-08-04T23:32:16;99385.72;;;30.97;36.46
25638;BME280;13496;51.040;13.680;2022-08-04T23:37:18;99380.34;;;30.97;36.38
25638;BME280;13496;51.040;13.680;2022-08-04T23:42:20;99374.16;;;30.96;36.40
25638;BME280;13496;51.040;13.680;2022-08-04T23:47:22;99364.53;;;30.95;36.76
25638;BME280;13496;51.040;13.680;2022-08-04T23:52:23;99371.28;;;30.93;36.40
25638;BME280;13496;51.040;13.680;2022-08-04T23:57:29;99378.78;;;30.91;36.46
